createdAt,value
2017-12-21T00:00:59.641Z,32.80
2017-12-21T00:03:42.205Z,30.33
2017-12-21T00:06:24.394Z,32.63
2017-12-21T00:09:06.959Z,24.03
2017-12-21T00:11:49.656Z,28.33
2017-12-21T00:14:32.341Z,26.63
2017-12-21T00:17:15.317Z,31.83
2017-12-21T00:19:58.061Z,39.67
2017-12-21T00:22:40.899Z,35.80
2017-12-21T00:25:29.596Z,32.23
2017-12-21T00:28:17.003Z,14.40
2017-12-21T00:30:59.524Z,19.50
2017-12-21T00:33:42.260Z,17.97
2017-12-21T00:36:25.043Z,23.47
2017-12-21T00:39:07.722Z,18.27
2017-12-21T00:41:50.651Z,22.17
2017-12-21T00:44:33.141Z,45.57
2017-12-21T00:47:15.754Z,13.17
2017-12-21T00:49:58.347Z,18.13
2017-12-21T00:52:41.005Z,18.40
2017-12-21T00:55:23.809Z,16.40
2017-12-21T00:58:06.550Z,17.87
2017-12-21T01:00:49.334Z,18.40
2017-12-21T01:03:32.251Z,19.80
2017-12-21T01:06:14.506Z,14.77
2017-12-21T01:08:57.527Z,15.17
2017-12-21T01:11:40.598Z,18.93
2017-12-21T01:14:28.809Z,21.40
2017-12-21T01:17:11.634Z,16.33
2017-12-21T01:19:54.311Z,24.93
2017-12-21T01:22:43.438Z,16.73
2017-12-21T01:25:32.996Z,15.50
2017-12-21T01:28:15.427Z,22.40
2017-12-21T01:30:58.203Z,13.70
2017-12-21T01:33:40.990Z,19.27
2017-12-21T01:36:23.677Z,16.90
2017-12-21T01:39:06.410Z,23.60
2017-12-21T01:41:49.202Z,19.53
2017-12-21T01:44:32.117Z,14.20
2017-12-21T01:47:14.813Z,12.03
2017-12-21T01:49:57.658Z,20.70
2017-12-21T01:52:40.402Z,12.63
2017-12-21T01:55:23.193Z,15.37
2017-12-21T01:58:06.715Z,13.17
2017-12-21T02:00:49.713Z,13.60
2017-12-21T02:03:32.177Z,14.90
2017-12-21T02:06:15.073Z,13.73
2017-12-21T02:08:57.647Z,16.97
2017-12-21T02:11:41.687Z,13.30
2017-12-21T02:14:24.601Z,15.80
2017-12-21T02:17:07.861Z,10.27
2017-12-21T02:19:50.512Z,10.37
2017-12-21T02:22:33.558Z,13.33
2017-12-21T02:25:16.661Z,11.40
2017-12-21T02:27:59.482Z,13.03
2017-12-21T02:30:42.415Z,14.70
2017-12-21T02:33:25.098Z,12.13
2017-12-21T02:36:07.883Z,10.00
2017-12-21T02:38:50.572Z,13.63
2017-12-21T02:41:33.351Z,11.83
2017-12-21T02:44:16.338Z,11.97
2017-12-21T02:46:59.209Z,17.70
2017-12-21T02:49:41.730Z,20.37
2017-12-21T02:52:24.496Z,25.30
2017-12-21T02:55:07.447Z,11.83
2017-12-21T02:57:53.571Z,12.07
2017-12-21T03:00:38.235Z,15.00
2017-12-21T03:03:22.998Z,13.20
2017-12-21T03:06:05.949Z,12.10
2017-12-21T03:08:48.567Z,14.67
2017-12-21T03:11:31.302Z,15.53
2017-12-21T03:14:13.871Z,15.27
2017-12-21T03:16:56.647Z,12.90
2017-12-21T03:19:39.103Z,9.30
2017-12-21T03:22:21.895Z,12.20
2017-12-21T03:25:10.010Z,11.17
2017-12-21T03:27:52.622Z,12.40
2017-12-21T03:30:34.807Z,16.50
2017-12-21T03:33:16.913Z,27.27
2017-12-21T03:35:59.367Z,10.83
2017-12-21T03:38:42.229Z,11.53
2017-12-21T03:41:25.030Z,16.77
2017-12-21T03:44:07.615Z,9.80
2017-12-21T03:46:58.177Z,14.93
2017-12-21T03:49:41.092Z,17.93
2017-12-21T03:52:23.878Z,10.53
2017-12-21T03:55:08.992Z,13.73
2017-12-21T03:57:52.034Z,12.50
2017-12-21T04:00:34.890Z,13.83
2017-12-21T04:03:17.689Z,14.07
2017-12-21T04:06:00.607Z,18.40
2017-12-21T04:08:43.342Z,12.63
2017-12-21T04:11:25.771Z,11.97
2017-12-21T04:14:08.526Z,12.87
2017-12-21T04:16:51.278Z,8.60
2017-12-21T04:19:34.081Z,12.17
2017-12-21T04:22:16.806Z,11.73
2017-12-21T04:24:59.300Z,11.93
2017-12-21T04:27:41.916Z,12.50
2017-12-21T04:30:24.820Z,11.10
2017-12-21T04:33:07.695Z,9.33
2017-12-21T04:35:55.171Z,14.57
2017-12-21T04:38:38.168Z,12.20
2017-12-21T04:41:20.914Z,9.80
2017-12-21T04:44:03.610Z,23.90
2017-12-21T04:46:46.439Z,29.27
2017-12-21T04:49:29.266Z,11.93
2017-12-21T04:52:11.983Z,8.47
2017-12-21T04:54:54.614Z,10.80
2017-12-21T04:57:37.165Z,7.73
2017-12-21T05:00:19.747Z,11.73
2017-12-21T05:03:02.402Z,25.20
2017-12-21T05:05:45.028Z,20.80
2017-12-21T05:08:27.750Z,12.10
2017-12-21T05:11:10.403Z,9.57
2017-12-21T05:13:53.135Z,14.60
2017-12-21T05:16:35.681Z,23.07
2017-12-21T05:19:18.322Z,20.60
2017-12-21T05:22:01.055Z,10.53
2017-12-21T05:24:43.613Z,22.70
2017-12-21T05:27:26.391Z,41.93
2017-12-21T05:30:09.024Z,44.83
2017-12-21T05:32:51.551Z,27.10
2017-12-21T05:35:34.306Z,24.40
2017-12-21T05:38:17.954Z,10.37
2017-12-21T05:41:04.003Z,46.60
2017-12-21T05:43:52.326Z,146.93
2017-12-21T05:46:35.319Z,58.90
2017-12-21T05:49:24.498Z,94.23
2017-12-21T05:52:11.933Z,46.40
2017-12-21T05:54:54.903Z,24.70
2017-12-21T05:57:37.465Z,37.10
2017-12-21T06:00:24.254Z,34.60
2017-12-21T06:03:07.066Z,29.50
2017-12-21T06:05:49.855Z,204.57
2017-12-21T06:08:32.390Z,252.83
2017-12-21T06:11:15.087Z,110.60
2017-12-21T06:13:57.763Z,124.13
2017-12-21T06:16:40.437Z,61.60
2017-12-21T06:19:23.017Z,32.60
2017-12-21T06:22:06.455Z,47.47
2017-12-21T06:24:49.281Z,27.10
2017-12-21T06:27:32.010Z,93.20
2017-12-21T06:30:14.619Z,62.87
2017-12-21T06:33:04.106Z,31.07
2017-12-21T06:35:46.914Z,63.43
2017-12-21T06:38:30.590Z,69.77
2017-12-21T06:41:13.035Z,48.00
2017-12-21T06:43:55.779Z,45.97
2017-12-21T06:46:38.394Z,27.47
2017-12-21T06:49:20.927Z,59.40
2017-12-21T06:52:04.023Z,122.30
2017-12-21T06:54:46.427Z,93.23
2017-12-21T06:57:29.306Z,36.60
2017-12-21T07:00:12.138Z,45.10
2017-12-21T07:02:54.893Z,76.30
2017-12-21T07:05:37.621Z,59.90
2017-12-21T07:08:20.430Z,43.97
2017-12-21T07:11:03.174Z,33.37
2017-12-21T07:13:45.946Z,29.03
2017-12-21T07:16:28.720Z,67.20
2017-12-21T07:19:30.249Z,58.57
2017-12-21T07:22:12.884Z,59.13
2017-12-21T07:24:55.616Z,72.83
2017-12-21T07:27:38.863Z,62.27
2017-12-21T07:30:21.826Z,56.00
2017-12-21T07:33:04.372Z,67.70
2017-12-21T07:35:46.938Z,129.50
2017-12-21T07:38:36.427Z,78.63
2017-12-21T07:41:19.253Z,95.07
2017-12-21T07:44:01.926Z,70.47
2017-12-21T07:46:44.626Z,77.23
2017-12-21T07:49:27.147Z,84.40
2017-12-21T07:52:09.802Z,22.57
2017-12-21T07:54:52.358Z,67.23
2017-12-21T07:57:35.175Z,30.43
2017-12-21T08:00:17.840Z,20.70
2017-12-21T08:03:00.573Z,74.67
2017-12-21T08:05:43.278Z,30.23
2017-12-21T08:08:25.955Z,29.97
2017-12-21T08:11:08.558Z,50.37
2017-12-21T08:13:51.251Z,99.27
2017-12-21T08:16:35.078Z,45.03
2017-12-21T08:19:18.002Z,71.37
2017-12-21T08:22:00.911Z,34.07
2017-12-21T08:24:43.902Z,25.97
2017-12-21T08:27:26.678Z,25.00
2017-12-21T08:30:09.218Z,25.87
2017-12-21T08:32:52.097Z,27.00
2017-12-21T08:35:34.486Z,67.53
2017-12-21T08:38:17.132Z,99.87
2017-12-21T08:40:59.802Z,85.77
2017-12-21T08:43:42.573Z,95.20
2017-12-21T08:46:24.949Z,70.50
2017-12-21T08:49:07.417Z,112.10
2017-12-21T08:51:50.269Z,115.10
2017-12-21T08:54:36.575Z,56.50
2017-12-21T08:57:19.613Z,96.83
2017-12-21T09:00:02.030Z,19.53
2017-12-21T09:02:44.732Z,23.87
2017-12-21T09:05:27.407Z,40.47
2017-12-21T09:08:18.291Z,60.57
2017-12-21T09:11:01.522Z,21.73
2017-12-21T09:13:50.988Z,47.53
2017-12-21T09:16:33.933Z,49.27
2017-12-21T09:19:16.925Z,75.70
2017-12-21T09:21:59.691Z,39.50
2017-12-21T09:24:46.272Z,24.77
2017-12-21T09:27:29.098Z,31.23
2017-12-21T09:30:11.806Z,34.53
2017-12-21T09:32:54.343Z,24.00
2017-12-21T09:35:43.074Z,14.93
2017-12-21T09:38:25.991Z,14.07
2017-12-21T09:41:11.510Z,8.30
2017-12-21T09:43:54.306Z,19.00
2017-12-21T09:46:37.178Z,14.87
2017-12-21T09:49:20.736Z,26.23
2017-12-21T09:52:03.418Z,19.47
2017-12-21T09:54:45.887Z,20.60
2017-12-21T09:57:29.110Z,20.83
2017-12-21T10:00:12.063Z,18.93
2017-12-21T10:02:54.678Z,13.83
2017-12-21T10:05:37.210Z,13.97
2017-12-21T10:08:19.788Z,21.70
2017-12-21T10:11:02.525Z,10.60
2017-12-21T10:13:46.653Z,11.43
2017-12-21T10:16:29.546Z,12.23
2017-12-21T10:19:12.894Z,22.70
2017-12-21T10:21:54.997Z,13.57
2017-12-21T10:24:37.966Z,16.80
2017-12-21T10:27:20.418Z,9.90
2017-12-21T10:30:03.153Z,15.03
2017-12-21T10:32:46.133Z,9.90
2017-12-21T10:35:30.082Z,9.50
2017-12-21T10:38:12.846Z,8.93
2017-12-21T10:40:55.475Z,10.23
2017-12-21T10:43:44.177Z,12.90
2017-12-21T10:46:26.479Z,13.70
2017-12-21T10:49:09.175Z,11.63
2017-12-21T10:51:51.685Z,11.13
2017-12-21T10:54:38.050Z,10.43
2017-12-21T10:57:20.940Z,10.53
2017-12-21T11:00:04.764Z,8.13
2017-12-21T11:02:53.305Z,11.40
2017-12-21T11:05:35.922Z,10.97
2017-12-21T11:08:18.314Z,14.10
2017-12-21T11:11:00.793Z,9.20
2017-12-21T11:13:43.356Z,12.37
2017-12-21T11:16:26.061Z,10.53
2017-12-21T11:19:08.760Z,7.33
2017-12-21T11:21:51.487Z,11.37
2017-12-21T11:24:34.054Z,16.23
2017-12-21T11:27:16.647Z,15.17
2017-12-21T11:29:59.195Z,13.20
2017-12-21T11:32:41.927Z,11.40
2017-12-21T11:35:24.428Z,9.27
2017-12-21T11:38:07.104Z,10.80
2017-12-21T11:40:49.703Z,12.80
2017-12-21T11:43:38.792Z,8.43
2017-12-21T11:46:22.134Z,19.97
2017-12-21T11:49:04.952Z,19.40
2017-12-21T11:51:47.661Z,9.50
2017-12-21T11:54:30.557Z,13.23
2017-12-21T11:57:13.926Z,10.37
2017-12-21T11:59:57.078Z,10.00
2017-12-21T12:02:39.566Z,8.67
2017-12-21T12:05:35.332Z,16.50
2017-12-21T12:08:18.071Z,11.27
2017-12-21T12:11:01.176Z,16.90
2017-12-21T12:13:49.492Z,11.70
2017-12-21T12:16:32.170Z,8.70
2017-12-21T12:19:21.626Z,9.43
2017-12-21T12:22:04.342Z,16.27
2017-12-21T12:24:46.987Z,13.73
2017-12-21T12:27:29.622Z,10.00
2017-12-21T12:30:12.267Z,14.60
2017-12-21T12:32:54.779Z,15.80
2017-12-21T12:35:37.312Z,12.40
2017-12-21T12:38:19.915Z,11.20
2017-12-21T12:41:02.438Z,10.57
2017-12-21T12:43:45.062Z,12.40
2017-12-21T12:46:27.743Z,14.13
2017-12-21T12:49:10.624Z,11.93
2017-12-21T12:51:53.546Z,13.53
2017-12-21T12:54:36.361Z,11.80
2017-12-21T12:57:19.039Z,8.83
2017-12-21T13:00:01.673Z,17.13
2017-12-21T13:02:44.249Z,13.23
2017-12-21T13:05:26.832Z,21.10
2017-12-21T13:08:09.298Z,10.40
2017-12-21T13:10:51.870Z,10.87
2017-12-21T13:13:34.274Z,8.13
2017-12-21T13:16:16.841Z,13.30
2017-12-21T13:18:59.405Z,10.07
2017-12-21T13:21:42.003Z,11.63
2017-12-21T13:24:24.742Z,11.50
2017-12-21T13:27:07.714Z,9.43
2017-12-21T13:29:50.634Z,16.40
2017-12-21T13:32:32.995Z,12.50
2017-12-21T13:35:15.699Z,11.27
2017-12-21T13:37:58.322Z,11.20
2017-12-21T13:40:41.127Z,13.00
2017-12-21T13:43:24.634Z,12.50
2017-12-21T13:46:07.524Z,9.07
2017-12-21T13:48:50.132Z,13.07
2017-12-21T13:51:36.469Z,12.03
2017-12-21T13:54:19.290Z,13.40
2017-12-21T13:57:08.002Z,11.43
2017-12-21T13:59:50.495Z,17.23
2017-12-21T14:02:36.942Z,11.23
2017-12-21T14:05:19.838Z,19.17
2017-12-21T14:08:02.647Z,22.33
2017-12-21T14:10:51.430Z,12.97
2017-12-21T14:13:33.944Z,16.10
2017-12-21T14:16:23.486Z,11.30
2017-12-21T14:19:06.218Z,16.80
2017-12-21T14:21:49.016Z,14.53
2017-12-21T14:24:31.553Z,10.70
2017-12-21T14:27:13.931Z,12.10
2017-12-21T14:29:56.604Z,14.13
2017-12-21T14:32:39.200Z,10.90
2017-12-21T14:35:21.767Z,18.37
2017-12-21T14:38:10.674Z,15.40
2017-12-21T14:40:53.178Z,12.47
2017-12-21T14:43:41.871Z,13.37
2017-12-21T14:46:24.286Z,11.20
2017-12-21T14:49:06.683Z,14.73
2017-12-21T14:51:49.450Z,9.53
2017-12-21T14:54:32.329Z,14.30
2017-12-21T14:57:16.012Z,14.43
2017-12-21T14:59:58.831Z,9.63
2017-12-21T15:02:41.358Z,9.97
2017-12-21T15:05:24.019Z,10.27
2017-12-21T15:08:06.750Z,11.07
2017-12-21T15:10:49.655Z,10.00
2017-12-21T15:13:32.102Z,10.93
2017-12-21T15:16:21.005Z,9.77
2017-12-21T15:19:03.190Z,15.10
2017-12-21T15:21:45.861Z,9.37
2017-12-21T15:24:28.486Z,20.07
2017-12-21T15:27:11.204Z,10.13
2017-12-21T15:29:53.855Z,25.73
2017-12-21T15:32:36.006Z,24.03
2017-12-21T15:35:20.151Z,14.40
2017-12-21T15:38:02.339Z,19.23
2017-12-21T15:40:45.003Z,23.80
2017-12-21T15:43:27.617Z,12.70
2017-12-21T15:46:10.202Z,18.53
2017-12-21T15:48:52.735Z,24.43
2017-12-21T15:51:35.350Z,28.53
2017-12-21T15:54:17.953Z,15.27
2017-12-21T15:57:00.810Z,21.43
2017-12-21T15:59:53.818Z,12.13
2017-12-21T16:02:36.632Z,26.70
2017-12-21T16:05:19.454Z,20.30
2017-12-21T16:08:02.126Z,17.63
2017-12-21T16:10:44.866Z,36.87
2017-12-21T16:13:27.633Z,21.10
2017-12-21T16:16:10.448Z,15.77
2017-12-21T16:18:53.471Z,18.33
2017-12-21T16:21:35.774Z,43.30
2017-12-21T16:24:18.602Z,14.50
2017-12-21T16:27:00.988Z,11.10
2017-12-21T16:29:43.730Z,19.40
2017-12-21T16:32:26.297Z,15.53
2017-12-21T16:35:09.502Z,13.83
2017-12-21T16:37:53.418Z,9.60
2017-12-21T16:40:36.195Z,9.57
2017-12-21T16:43:24.943Z,16.70
2017-12-21T16:46:07.602Z,12.73
2017-12-21T16:48:49.854Z,16.83
2017-12-21T16:51:39.626Z,22.53
2017-12-21T16:54:22.441Z,9.53
2017-12-21T16:57:05.256Z,9.77
2017-12-21T16:59:54.375Z,13.30
2017-12-21T17:02:37.726Z,9.57
2017-12-21T17:05:21.271Z,13.63
2017-12-21T17:08:04.165Z,10.73
2017-12-21T17:10:47.085Z,10.77
2017-12-21T17:13:29.830Z,17.63
2017-12-21T17:16:12.503Z,16.87
2017-12-21T17:18:55.116Z,16.40
2017-12-21T17:21:38.665Z,13.17
2017-12-21T17:24:21.492Z,41.77
2017-12-21T17:27:04.007Z,13.43
2017-12-21T17:29:46.636Z,12.70
2017-12-21T17:32:29.268Z,21.40
2017-12-21T17:35:11.934Z,17.90
2017-12-21T17:37:54.743Z,12.20
2017-12-21T17:40:44.369Z,13.03
2017-12-21T17:43:27.071Z,9.67
2017-12-21T17:46:09.880Z,16.90
2017-12-21T17:48:52.367Z,10.23
2017-12-21T17:51:38.006Z,12.60
2017-12-21T17:54:20.666Z,8.80
2017-12-21T17:57:03.240Z,10.97
2017-12-21T17:59:45.968Z,7.83
2017-12-21T18:02:29.908Z,17.03
2017-12-21T18:05:12.423Z,15.70
2017-12-21T18:07:55.080Z,7.80
2017-12-21T18:10:37.834Z,9.60
2017-12-21T18:13:20.771Z,12.37
2017-12-21T18:16:04.027Z,14.03
2017-12-21T18:18:47.049Z,9.17
2017-12-21T18:21:29.802Z,19.03
2017-12-21T18:24:12.622Z,16.53
2017-12-21T18:26:55.274Z,11.83
2017-12-21T18:29:37.774Z,11.93
2017-12-21T18:32:20.370Z,18.20
2017-12-21T18:35:02.962Z,10.63
2017-12-21T18:37:46.229Z,15.10
2017-12-21T18:40:29.162Z,9.77
2017-12-21T18:43:11.809Z,17.53
2017-12-21T18:45:54.302Z,8.73
2017-12-21T18:48:43.192Z,14.47
2017-12-21T18:51:26.660Z,10.93
2017-12-21T18:54:09.470Z,14.47
2017-12-21T18:56:52.374Z,10.60
2017-12-21T18:59:34.537Z,10.30
2017-12-21T19:02:17.342Z,12.50
2017-12-21T19:05:00.190Z,10.00
2017-12-21T19:07:42.892Z,7.10
2017-12-21T19:10:25.620Z,10.47
2017-12-21T19:13:08.587Z,10.70
2017-12-21T19:15:51.889Z,7.53
2017-12-21T19:18:34.696Z,16.00
2017-12-21T19:21:18.047Z,18.00
2017-12-21T19:24:00.899Z,11.60
2017-12-21T19:26:43.493Z,18.13
2017-12-21T19:29:26.087Z,10.17
2017-12-21T19:32:08.663Z,13.63
2017-12-21T19:34:51.641Z,10.57
2017-12-21T19:37:33.855Z,16.73
2017-12-21T19:40:16.530Z,12.70
2017-12-21T19:43:01.068Z,16.70
2017-12-21T19:45:43.906Z,8.93
2017-12-21T19:48:26.483Z,19.10
2017-12-21T19:51:09.409Z,10.10
2017-12-21T19:53:58.090Z,31.13
2017-12-21T19:56:40.717Z,8.70
2017-12-21T19:59:23.194Z,8.43
2017-12-21T20:02:05.993Z,35.33
2017-12-21T20:04:48.317Z,19.53
2017-12-21T20:07:30.967Z,25.40
2017-12-21T20:10:14.563Z,16.23
2017-12-21T20:12:57.554Z,24.50
2017-12-21T20:15:40.275Z,14.63
2017-12-21T20:18:22.876Z,11.73
2017-12-21T20:21:05.703Z,11.70
2017-12-21T20:23:48.564Z,11.83
2017-12-21T20:26:32.069Z,13.70
2017-12-21T20:29:15.652Z,20.20
2017-12-21T20:31:58.518Z,9.33
2017-12-21T20:34:41.254Z,11.13
2017-12-21T20:37:24.216Z,11.87
2017-12-21T20:40:06.754Z,11.67
2017-12-21T20:42:49.818Z,11.67
2017-12-21T20:45:31.989Z,19.13
2017-12-21T20:48:14.574Z,11.67
2017-12-21T20:50:57.362Z,23.13
2017-12-21T20:53:39.721Z,23.87
2017-12-21T20:56:22.385Z,15.00
2017-12-21T20:59:11.251Z,18.37
2017-12-21T21:01:53.550Z,10.13
2017-12-21T21:04:36.377Z,28.50
2017-12-21T21:07:18.886Z,24.97
2017-12-21T21:10:01.533Z,13.10
2017-12-21T21:12:45.039Z,19.53
2017-12-21T21:15:28.018Z,14.80
2017-12-21T21:18:10.472Z,15.00
2017-12-21T21:20:54.915Z,17.30
2017-12-21T21:23:44.061Z,17.03
2017-12-21T21:26:26.298Z,18.87
2017-12-21T21:29:09.074Z,32.33
2017-12-21T21:31:51.610Z,9.10
2017-12-21T21:34:34.394Z,21.83
2017-12-21T21:37:23.914Z,29.00
2017-12-21T21:40:12.660Z,11.43
2017-12-21T21:42:55.130Z,20.40
2017-12-21T21:45:37.854Z,20.30
2017-12-21T21:48:20.296Z,11.93
2017-12-21T21:51:02.921Z,13.43
2017-12-21T21:53:45.341Z,12.97
2017-12-21T21:56:28.070Z,16.90
2017-12-21T21:59:10.655Z,11.23
2017-12-21T22:01:53.258Z,15.87
2017-12-21T22:04:37.014Z,15.80
2017-12-21T22:07:20.371Z,17.73
2017-12-21T22:10:02.855Z,30.43
2017-12-21T22:12:52.783Z,19.80
2017-12-21T22:15:35.282Z,19.40
2017-12-21T22:18:17.931Z,25.53
2017-12-21T22:21:00.595Z,19.83
2017-12-21T22:23:43.311Z,14.20
2017-12-21T22:26:26.037Z,13.17
2017-12-21T22:29:08.947Z,17.13
2017-12-21T22:31:51.378Z,18.77
2017-12-21T22:34:35.909Z,15.03
2017-12-21T22:37:18.724Z,32.57
2017-12-21T22:40:01.347Z,22.77
2017-12-21T22:42:43.815Z,15.83
2017-12-21T22:45:26.460Z,17.50
2017-12-21T22:48:09.100Z,13.60
2017-12-21T22:50:52.851Z,28.93
2017-12-21T22:53:35.262Z,30.00
2017-12-21T22:56:17.985Z,16.63
2017-12-21T22:59:00.507Z,17.97
2017-12-21T23:01:43.164Z,19.47
2017-12-21T23:04:25.619Z,34.40
2017-12-21T23:07:08.364Z,14.77
2017-12-21T23:09:51.114Z,25.70
2017-12-21T23:12:33.822Z,14.73
2017-12-21T23:15:16.194Z,11.20
2017-12-21T23:17:59.029Z,21.83
2017-12-21T23:20:41.775Z,14.73
2017-12-21T23:23:25.530Z,17.27
2017-12-21T23:26:07.873Z,24.57
2017-12-21T23:28:50.428Z,16.10
2017-12-21T23:31:32.895Z,15.67
2017-12-21T23:34:15.351Z,13.23
2017-12-21T23:36:57.997Z,17.47
2017-12-21T23:39:40.639Z,35.37
2017-12-21T23:42:23.159Z,14.33
2017-12-21T23:45:05.773Z,20.67
2017-12-21T23:47:48.143Z,28.67
2017-12-21T23:50:30.651Z,16.00
2017-12-21T23:53:13.286Z,16.63
2017-12-21T23:55:55.946Z,14.13
2017-12-21T23:58:45.662Z,11.13
